Enderlin, North Dakota
Current Conditions -  °F | °C
As of 4:15 AM on Thursday 23 Oct 2014 (Local Time) from KGWR Reporting Station
Clear Clear  
Wind Chill:   Ceiling: Unl
Heat Index:   Visibility: 10mi
Dew Point:   Wind: 10mph
Humidity: 100%   Direction: 220°SW
Pressure: 29.93"   Gusts: NA
Location:  46.62°N, 97.6°W
Report Text: KGWR 230915Z AUTO 22009KT 10SM CLR 06/06 A2993 RMK A01 P000
Loading
Personal Weather Stations






























Interactive Weather Map
Tropical Storm Tracking
New forecast layout! Learn more

10-Day Weather Forecast

Advertisements
Track Severe Weather on mobile